Time;durP1;ratioP1;P1;durP2;ratioP2;P2;SDS_P1;SDS_P2;PMS_P1;PMS_P2;Temp;Humidity;BMP_temperature;BMP_pressure;BME280_temperature;BME280_humidity;BME280_pressure;Samples;Min_cycle;Max_cycle;Signal;HPM_P1;HPM_P2
2021/06/01 00:01:50;;;;;;;;;;;;;;;18.84;46.21;101695.84;4987251;28;98476;-86
2021/06/01 00:04:16;;;;;;;;;;;;;;;19.00;46.13;101696.69;5004939;28;96703;-85
2021/06/01 00:06:43;;;;;;;;;;;;;;;18.55;47.48;101692.91;4989020;28;96928;-86
2021/06/01 00:09:10;;;;;;;;;;;;;;;18.46;47.81;101690.69;4994766;28;101183;-85
2021/06/01 00:11:36;;;;;;;;;;;;;;;18.48;47.45;101691.47;4983253;28;100298;-86
2021/06/01 00:14:03;;;;;;;;;;;;;;;18.44;47.61;101697.94;4997848;28;96506;-86
2021/06/01 00:16:31;;;;;;;;;;;;;;;18.47;47.59;101691.56;4971483;28;96961;-86
2021/06/01 00:18:58;;;;;;;;;;;;;;;18.57;47.40;101688.34;4998585;28;101334;-85
2021/06/01 00:21:24;;;;;;;;;;;;;;;18.62;47.18;101688.09;4998785;28;99331;-86
2021/06/01 00:23:52;;;;;;;;;;;;;;;18.41;47.86;101682.03;4996570;28;96834;-88
2021/06/01 00:26:18;;;;;;;;;;;;;;;18.82;47.03;101681.66;5018587;28;96854;-88
2021/06/01 00:28:44;;;;;;;;;;;;;;;18.75;47.18;101682.94;5014292;28;99138;-88
2021/06/01 00:31:14;;;;;;;;;;;;;;;18.90;46.75;101676.75;5018953;28;98256;-88
2021/06/01 00:33:40;;;;;;;;;;;;;;;18.86;46.39;101686.75;5023359;28;96637;-87
2021/06/01 00:36:06;;;;;;;;;;;;;;;18.76;46.70;101677.50;5026025;28;96867;-87
2021/06/01 00:38:32;;;;;;;;;;;;;;;18.57;47.20;101676.78;5021282;28;101449;-86
2021/06/01 00:40:59;;;;;;;;;;;;;;;18.49;47.45;101677.16;5026156;28;98647;-87
2021/06/01 00:43:25;;;;;;;;;;;;;;;18.37;47.76;101674.28;5020903;28;96663;-87
2021/06/01 00:45:51;;;;;;;;;;;;;;;18.91;46.43;101673.97;5017320;28;97011;-86
2021/06/01 00:48:20;;;;;;;;;;;;;;;18.58;47.35;101675.81;5021938;28;101538;-87
2021/06/01 00:50:46;;;;;;;;;;;;;;;18.52;47.16;101679.66;5023787;28;102129;-87
2021/06/01 00:53:12;;;;;;;;;;;;;;;18.35;47.64;101681.50;5031329;28;97246;-86
2021/06/01 00:55:38;;;;;;;;;;;;;;;18.50;47.51;101673.53;5029349;28;96851;-86
2021/06/01 00:58:05;;;;;;;;;;;;;;;18.47;47.61;101676.38;5011375;28;98392;-87
2021/06/01 01:00:53;;;;;;;;;;;;;;;18.33;48.23;101673.56;5022801;28;97605;-86
2021/06/01 01:03:25;;;;;;;;;;;;;;;18.49;48.04;101673.63;5025836;28;96591;-85
2021/06/01 01:05:52;;;;;;;;;;;;;;;18.74;47.79;101681.22;5020826;28;96941;-86
2021/06/01 01:08:32;;;;;;;;;;;;;;;18.52;48.42;101673.44;5006610;28;98977;-86
2021/06/01 01:11:01;;;;;;;;;;;;;;;18.85;47.16;101673.44;5020815;28;99174;-86
2021/06/01 01:13:31;;;;;;;;;;;;;;;18.50;48.23;101681.56;5021333;28;96682;-86
2021/06/01 01:15:59;;;;;;;;;;;;;;;18.32;48.34;101675.38;5030929;28;96881;-86
2021/06/01 01:18:27;;;;;;;;;;;;;;;18.16;49.13;101684.28;5023793;28;100311;-86
2021/06/01 01:20:57;;;;;;;;;;;;;;;18.50;48.26;101681.56;5014928;28;100082;-85
2021/06/01 01:23:26;;;;;;;;;;;;;;;18.25;48.73;101681.97;5013490;28;96620;-87
2021/06/01 01:25:58;;;;;;;;;;;;;;;18.00;49.65;101672.66;5030145;28;96778;-85
2021/06/01 01:28:28;;;;;;;;;;;;;;;18.10;49.63;101676.59;5027128;28;99561;-87
2021/06/01 01:30:57;;;;;;;;;;;;;;;18.26;49.06;101678.38;5035861;28;99669;-86
2021/06/01 01:33:28;;;;;;;;;;;;;;;18.18;49.37;101679.72;5038443;28;96351;-86
2021/06/01 01:35:55;;;;;;;;;;;;;;;18.02;50.02;101681.47;5037184;28;96802;-85
2021/06/01 01:38:22;;;;;;;;;;;;;;;18.41;49.19;101678.50;5039254;28;99053;-86
2021/06/01 01:40:48;;;;;;;;;;;;;;;18.19;49.84;101676.94;5034839;28;99707;-87
2021/06/01 01:43:17;;;;;;;;;;;;;;;18.25;49.77;101676.63;5030096;28;96356;-87
2021/06/01 01:45:49;;;;;;;;;;;;;;;18.33;49.77;101684.25;5016853;28;96690;-87
2021/06/01 01:51:15;;;;;;;;;;;;;;;18.01;50.70;101674.38;5031443;28;96480;-87
2021/06/01 01:53:43;;;;;;;;;;;;;;;17.95;51.05;101672.03;5029484;28;96750;-88
2021/06/01 01:56:09;;;;;;;;;;;;;;;18.17;50.42;101664.63;5029431;28;96746;-86
2021/06/01 01:58:36;;;;;;;;;;;;;;;17.79;51.26;101662.09;5030105;28;101065;-88
2021/06/01 02:01:02;;;;;;;;;;;;;;;17.64;52.03;101662.03;5034853;28;100462;-88
2021/06/01 02:03:28;;;;;;;;;;;;;;;17.55;52.35;101652.63;5036225;28;96770;-87
2021/06/01 02:05:55;;;;;;;;;;;;;;;17.81;51.72;101660.22;5035683;28;96525;-88
2021/06/01 02:08:23;;;;;;;;;;;;;;;17.61;52.06;101656.81;5029112;28;99666;-86
2021/06/01 02:10:53;;;;;;;;;;;;;;;17.68;52.08;101652.91;5027017;28;100091;-86
2021/06/01 02:13:19;;;;;;;;;;;;;;;17.86;51.49;101658.19;5003482;28;96641;-86
2021/06/01 02:15:45;;;;;;;;;;;;;;;17.60;52.20;101650.59;5005856;28;96913;-86
2021/06/01 02:18:12;;;;;;;;;;;;;;;17.64;52.39;101654.88;5021913;28;99646;-87
2021/06/01 02:20:38;;;;;;;;;;;;;;;18.01;51.04;101650.31;5021957;28;100244;-86
2021/06/01 02:25:52;;;;;;;;;;;;;;;18.16;50.19;101655.72;5016507;28;96972;-86
2021/06/01 02:28:21;;;;;;;;;;;;;;;18.31;49.33;101651.38;5021037;28;99906;-86
2021/06/01 02:30:50;;;;;;;;;;;;;;;18.12;50.35;101647.94;5020332;28;101526;-87
2021/06/01 02:33:19;;;;;;;;;;;;;;;18.23;49.83;101645.56;5021875;28;96648;-86
2021/06/01 02:35:45;;;;;;;;;;;;;;;18.32;49.99;101647.75;5016080;28;96809;-86
2021/06/01 02:38:12;;;;;;;;;;;;;;;18.13;50.54;101652.34;5013434;28;101330;-86
2021/06/01 02:40:39;;;;;;;;;;;;;;;17.96;51.12;101655.03;5017875;28;98169;-86
2021/06/01 02:43:08;;;;;;;;;;;;;;;17.86;51.56;101651.97;5022919;28;96845;-86
2021/06/01 02:45:36;;;;;;;;;;;;;;;17.87;51.47;101659.91;5021449;28;96667;-86
2021/06/01 02:48:02;;;;;;;;;;;;;;;17.96;51.33;101652.38;5019404;28;100601;-87
2021/06/01 02:50:29;;;;;;;;;;;;;;;17.93;51.73;101648.03;5036337;28;100619;-87
2021/06/01 02:52:57;;;;;;;;;;;;;;;17.75;52.60;101644.50;5032958;28;96579;-86
2021/06/01 02:55:25;;;;;;;;;;;;;;;18.06;52.08;101642.91;5030886;28;96647;-87
2021/06/01 02:57:52;;;;;;;;;;;;;;;18.07;51.82;101636.63;5029772;28;101724;-87
2021/06/01 03:00:21;;;;;;;;;;;;;;;18.10;51.75;101634.66;5031570;28;98065;-86
2021/06/01 03:02:47;;;;;;;;;;;;;;;18.09;51.68;101637.41;5038246;28;96915;-86
2021/06/01 03:05:14;;;;;;;;;;;;;;;17.96;52.21;101636.31;5020122;28;95980;-84
2021/06/01 03:07:41;;;;;;;;;;;;;;;17.69;52.82;101643.94;5032693;28;99332;-82
2021/06/01 03:10:10;;;;;;;;;;;;;;;17.89;52.14;101635.78;5039850;28;96894;-87
2021/06/01 03:12:44;;;;;;;;;;;;;;;17.39;53.38;101636.47;5042044;28;95889;-86
2021/06/01 03:15:10;;;;;;;;;;;;;;;18.13;51.46;101628.25;5041850;28;96636;-87
2021/06/01 03:17:38;;;;;;;;;;;;;;;17.69;52.74;101635.94;5030271;28;100277;-87
2021/06/01 03:20:05;;;;;;;;;;;;;;;17.51;53.17;101629.69;5032378;28;97979;-87
2021/06/01 03:22:31;;;;;;;;;;;;;;;17.56;53.28;101635.66;5029294;28;96777;-86
2021/06/01 03:24:57;;;;;;;;;;;;;;;17.90;52.12;101638.38;5019434;28;96694;-87
2021/06/01 03:27:23;;;;;;;;;;;;;;;17.48;53.28;101635.16;5007204;28;97933;-87
2021/06/01 03:29:49;;;;;;;;;;;;;;;17.47;53.44;101638.78;5009380;28;99203;-87
2021/06/01 03:32:15;;;;;;;;;;;;;;;17.84;52.30;101629.81;5010022;28;96786;-86
2021/06/01 03:34:42;;;;;;;;;;;;;;;18.34;50.89;101637.84;5007060;28;96842;-86
2021/06/01 03:37:08;;;;;;;;;;;;;;;18.10;51.59;101629.31;5008403;28;98795;-86
2021/06/01 03:39:34;;;;;;;;;;;;;;;18.44;50.54;101632.88;5006363;28;98896;-85
2021/06/01 03:42:00;;;;;;;;;;;;;;;18.08;51.49;101631.19;5008202;28;96671;-86
2021/06/01 03:44:26;;;;;;;;;;;;;;;18.20;51.22;101633.22;4993570;28;96640;-85
2021/06/01 03:46:53;;;;;;;;;;;;;;;18.20;51.19;101637.69;5000727;28;100007;-85
2021/06/01 03:49:19;;;;;;;;;;;;;;;17.80;52.42;101639.78;4988192;28;97810;-86
2021/06/01 03:51:47;;;;;;;;;;;;;;;18.07;51.88;101636.63;4998936;28;96803;-85
2021/06/01 03:54:13;;;;;;;;;;;;;;;17.93;52.33;101635.53;5004049;28;96778;-85
2021/06/01 03:56:39;;;;;;;;;;;;;;;18.06;51.85;101635.75;5000200;28;100597;-85
2021/06/01 03:59:05;;;;;;;;;;;;;;;18.16;51.73;101637.00;4983046;28;100968;-86
2021/06/01 04:01:33;;;;;;;;;;;;;;;18.15;51.91;101631.72;5004587;28;96657;-87
2021/06/01 04:03:59;;;;;;;;;;;;;;;18.30;51.40;101622.91;4983774;28;96828;-86
2021/06/01 04:06:24;;;;;;;;;;;;;;;18.48;51.49;101634.41;4994913;28;99737;-87
2021/06/01 04:08:53;;;;;;;;;;;;;;;18.72;50.60;101635.75;4995897;28;102916;-84
2021/06/01 04:11:21;;;;;;;;;;;;;;;18.95;49.56;101635.38;4997434;28;96739;-85
2021/06/01 04:13:47;;;;;;;;;;;;;;;19.22;49.08;101622.22;4992018;28;96854;-85
2021/06/01 04:16:13;;;;;;;;;;;;;;;19.14;49.13;101623.59;4998238;28;100388;-85
2021/06/01 04:18:40;;;;;;;;;;;;;;;19.00;50.14;101622.56;5003621;28;97987;-85
2021/06/01 04:21:06;;;;;;;;;;;;;;;18.81;50.94;101621.00;4996667;28;97245;-86
2021/06/01 04:23:32;;;;;;;;;;;;;;;18.87;50.75;101628.69;5002540;28;96757;-86
2021/06/01 04:26:00;;;;;;;;;;;;;;;18.83;51.05;101624.47;5012619;28;97672;-85
2021/06/01 04:28:26;;;;;;;;;;;;;;;18.88;50.70;101627.75;5007994;28;101215;-87
2021/06/01 04:30:52;;;;;;;;;;;;;;;19.07;50.51;101623.09;5010881;28;97081;-84
2021/06/01 04:33:18;;;;;;;;;;;;;;;18.86;50.96;101618.94;5022300;28;96824;-84
2021/06/01 04:35:45;;;;;;;;;;;;;;;19.05;50.42;101622.31;5018566;28;99427;-84
2021/06/01 04:38:11;;;;;;;;;;;;;;;19.04;50.35;101620.56;5015578;28;100214;-84
2021/06/01 04:40:37;;;;;;;;;;;;;;;18.96;50.12;101628.19;5002764;28;96705;-84
2021/06/01 04:43:04;;;;;;;;;;;;;;;19.06;48.91;101616.00;5018820;28;97213;-86
2021/06/01 04:45:30;;;;;;;;;;;;;;;18.94;49.36;101622.91;5019214;28;99466;-84
2021/06/01 04:47:56;;;;;;;;;;;;;;;19.49;48.19;101625.97;5027218;28;98308;-85
2021/06/01 04:50:23;;;;;;;;;;;;;;;19.67;47.48;101631.22;5006189;28;96849;-85
2021/06/01 04:52:50;;;;;;;;;;;;;;;19.71;47.42;101624.72;5015903;28;97921;-85
2021/06/01 04:55:16;;;;;;;;;;;;;;;19.86;46.60;101623.81;5011936;28;98518;-85
2021/06/01 04:57:42;;;;;;;;;;;;;;;19.95;46.64;101631.31;5013785;28;98994;-84
2021/06/01 05:00:16;;;;;;;;;;;;;;;20.20;46.37;101628.84;5005177;28;97201;-84
2021/06/01 05:02:42;;;;;;;;;;;;;;;20.41;45.29;101628.50;5011801;28;98672;-84
2021/06/01 05:05:10;;;;;;;;;;;;;;;20.66;44.74;101629.56;5015269;28;99262;-84
2021/06/01 05:07:36;;;;;;;;;;;;;;;20.67;44.08;101620.53;5020559;28;99422;-83
2021/06/01 05:10:03;;;;;;;;;;;;;;;20.78;43.85;101627.91;5022033;28;97922;-84
2021/06/01 05:12:29;;;;;;;;;;;;;;;21.11;43.16;101627.53;5023643;28;97121;-83
2021/06/01 05:14:55;;;;;;;;;;;;;;;21.53;42.07;101623.00;5028938;28;101590;-83
2021/06/01 05:17:26;;;;;;;;;;;;;;;21.57;41.88;101628.06;5027050;28;97796;-84
2021/06/01 05:19:54;;;;;;;;;;;;;;;21.59;41.77;101630.66;5014599;28;97269;-85
2021/06/01 05:22:22;;;;;;;;;;;;;;;21.61;41.67;101631.38;5014028;28;96789;-84
2021/06/01 05:24:49;;;;;;;;;;;;;;;21.90;40.76;101637.47;5012550;28;96803;-84
2021/06/01 05:27:16;;;;;;;;;;;;;;;21.58;41.44;101645.91;5009682;28;101325;-85
2021/06/01 05:29:46;;;;;;;;;;;;;;;21.60;41.32;101638.59;5012862;28;96658;-84
2021/06/01 05:32:45;;;;;;;;;;;;;;;21.40;41.95;101645.31;5011055;28;97287;-84
2021/06/01 05:35:18;;;;;;;;;;;;;;;20.74;43.27;101634.44;5012701;28;98869;-83
2021/06/01 05:37:45;;;;;;;;;;;;;;;20.93;42.83;101629.59;5028572;28;99607;-83
2021/06/01 05:40:13;;;;;;;;;;;;;;;20.83;43.23;101635.66;5028660;28;96609;-84
2021/06/01 05:42:39;;;;;;;;;;;;;;;21.17;42.66;101642.41;5024729;28;97341;-84
2021/06/01 05:45:06;;;;;;;;;;;;;;;21.43;41.92;101645.13;5019486;28;101399;-84
2021/06/01 05:47:32;;;;;;;;;;;;;;;21.28;42.56;101642.56;5018025;28;101018;-84
2021/06/01 05:49:58;;;;;;;;;;;;;;;21.45;42.08;101643.19;5025368;28;96887;-84
2021/06/01 05:52:26;;;;;;;;;;;;;;;21.62;41.76;101644.75;5020606;28;97698;-85
2021/06/01 05:54:52;;;;;;;;;;;;;;;21.55;41.98;101638.03;5011189;28;100135;-85
2021/06/01 05:57:18;;;;;;;;;;;;;;;21.54;42.20;101636.31;5009240;28;100040;-83
2021/06/01 05:59:46;;;;;;;;;;;;;;;21.81;41.48;101633.59;5013285;28;96779;-83
2021/06/01 06:02:12;;;;;;;;;;;;;;;21.37;42.55;101632.09;5016454;28;98361;-83
2021/06/01 06:04:38;;;;;;;;;;;;;;;21.58;41.99;101629.78;5016127;28;100499;-85
2021/06/01 06:07:04;;;;;;;;;;;;;;;21.61;41.66;101632.25;5021715;28;99100;-84
2021/06/01 06:09:32;;;;;;;;;;;;;;;22.01;41.15;101632.25;5025211;28;96920;-83
2021/06/01 06:11:58;;;;;;;;;;;;;;;22.36;40.46;101622.56;5017522;28;96532;-84
2021/06/01 06:14:24;;;;;;;;;;;;;;;22.56;40.11;101629.22;5018644;28;100186;-84
2021/06/01 06:16:51;;;;;;;;;;;;;;;22.12;40.89;101637.75;5012891;28;98381;-84
2021/06/01 06:19:17;;;;;;;;;;;;;;;22.59;40.22;101631.69;5014493;28;96732;-83
2021/06/01 06:21:43;;;;;;;;;;;;;;;22.80;39.54;101626.63;5023320;28;96824;-83
2021/06/01 06:24:09;;;;;;;;;;;;;;;23.01;39.36;101636.69;5021662;28;98152;-84
2021/06/01 06:26:39;;;;;;;;;;;;;;;22.88;39.34;101629.63;5025768;28;101104;-84
2021/06/01 06:29:05;;;;;;;;;;;;;;;22.83;39.64;101637.19;5022777;28;96825;-84
2021/06/01 06:31:31;;;;;;;;;;;;;;;23.04;39.19;101628.38;5022375;28;98099;-85
2021/06/01 06:34:04;;;;;;;;;;;;;;;23.09;39.33;101627.19;5016833;28;98481;-81
2021/06/01 06:36:32;;;;;;;;;;;;;;;23.71;38.08;101633.25;5013629;28;97680;-83
2021/06/01 06:38:59;;;;;;;;;;;;;;;23.70;38.06;101628.84;5028026;28;96818;-88
2021/06/01 06:41:27;;;;;;;;;;;;;;;23.39;38.73;101624.88;5011867;28;96971;-85
2021/06/01 06:43:55;;;;;;;;;;;;;;;24.11;37.66;101618.41;5034644;28;99825;-83
2021/06/01 06:46:25;;;;;;;;;;;;;;;24.05;37.53;101618.88;5036529;28;98172;-83
2021/06/01 06:48:51;;;;;;;;;;;;;;;23.74;38.21;101611.44;5016961;28;96669;-83
2021/06/01 06:51:17;;;;;;;;;;;;;;;24.22;37.24;101612.19;5030882;28;96596;-83
2021/06/01 06:53:51;;;;;;;;;;;;;;;24.54;36.88;101612.34;5034635;28;101435;-83
2021/06/01 06:56:17;;;;;;;;;;;;;;;24.51;37.00;101599.91;5037089;28;99843;-82
2021/06/01 06:58:43;;;;;;;;;;;;;;;24.03;37.80;101596.53;5035871;28;96658;-81
2021/06/01 07:01:11;;;;;;;;;;;;;;;23.85;37.99;101595.28;5018979;28;96701;-82
2021/06/01 07:03:37;;;;;;;;;;;;;;;24.27;37.56;101595.63;5021042;28;97651;-82
2021/06/01 07:06:03;;;;;;;;;;;;;;;24.29;37.78;101590.94;5034747;28;99344;-83
2021/06/01 07:08:29;;;;;;;;;;;;;;;24.34;37.89;101589.63;5026247;28;96752;-81
2021/06/01 07:10:55;;;;;;;;;;;;;;;23.77;38.78;101586.91;5022424;28;96773;-84
2021/06/01 07:13:25;;;;;;;;;;;;;;;24.01;38.15;101584.16;5023159;28;100183;-84
2021/06/01 07:15:52;;;;;;;;;;;;;;;24.22;38.02;101583.31;5009933;28;101092;-83
2021/06/01 07:18:23;;;;;;;;;;;;;;;24.61;37.13;101587.38;5017278;28;98710;-84
2021/06/01 07:20:49;;;;;;;;;;;;;;;24.80;36.98;101591.31;5019814;28;96754;-84
2021/06/01 07:23:16;;;;;;;;;;;;;;;24.92;36.76;101585.78;5011165;28;99698;-83
2021/06/01 07:25:43;;;;;;;;;;;;;;;24.60;37.15;101584.81;5018026;28;100971;-85
2021/06/01 07:28:09;;;;;;;;;;;;;;;24.58;37.33;101584.06;5018882;28;96948;-84
2021/06/01 07:30:35;;;;;;;;;;;;;;;25.06;36.72;101586.47;5021290;28;96927;-85
2021/06/01 07:33:05;;;;;;;;;;;;;;;25.07;36.06;101583.66;5021397;28;101366;-85
2021/06/01 07:35:32;;;;;;;;;;;;;;;25.56;35.64;101585.78;5023584;28;96637;-84
2021/06/01 07:37:58;;;;;;;;;;;;;;;25.49;35.51;101589.13;5015520;28;96700;-84
2021/06/01 07:40:26;;;;;;;;;;;;;;;25.45;35.51;101577.72;5020094;28;97005;-84
2021/06/01 07:42:54;;;;;;;;;;;;;;;25.53;34.78;101579.78;5020602;28;100008;-82
2021/06/01 07:45:20;;;;;;;;;;;;;;;25.56;35.03;101574.09;5018802;28;99421;-84
2021/06/01 07:47:48;;;;;;;;;;;;;;;25.91;34.34;101565.69;5009025;28;96716;-85
2021/06/01 07:50:14;;;;;;;;;;;;;;;26.23;34.04;101566.41;5017778;28;96850;-84
2021/06/01 07:52:41;;;;;;;;;;;;;;;25.79;34.00;101565.75;5020565;28;100320;-85
2021/06/01 07:55:08;;;;;;;;;;;;;;;26.24;33.51;101565.47;5017262;28;99154;-85
2021/06/01 07:57:34;;;;;;;;;;;;;;;25.78;33.93;101564.03;5003476;28;96691;-84
2021/06/01 08:00:01;;;;;;;;;;;;;;;25.49;33.95;101554.81;5009971;28;96788;-84
2021/06/01 08:02:27;;;;;;;;;;;;;;;25.91;33.49;101555.72;5012219;28;100077;-84
2021/06/01 08:04:53;;;;;;;;;;;;;;;26.22;33.18;101556.56;5015677;28;98544;-85
2021/06/01 08:07:20;;;;;;;;;;;;;;;26.25;32.44;101547.34;5012303;28;98208;-82
2021/06/01 08:09:49;;;;;;;;;;;;;;;26.13;32.05;101549.25;5021446;28;97290;-83
2021/06/01 08:12:15;;;;;;;;;;;;;;;26.05;31.78;101549.09;5018842;28;99393;-83
2021/06/01 08:14:41;;;;;;;;;;;;;;;26.21;31.84;101544.00;5017766;28;99225;-82
2021/06/01 08:17:07;;;;;;;;;;;;;;;25.95;31.90;101534.63;5025026;28;96836;-81
2021/06/01 08:19:38;;;;;;;;;;;;;;;25.38;32.96;101544.91;5032125;28;96833;-85
2021/06/01 08:22:11;;;;;;;;;;;;;;;25.93;32.17;101544.75;5043431;28;99291;-81
2021/06/01 08:24:37;;;;;;;;;;;;;;;26.18;31.39;101538.88;5025665;28;99278;-84
2021/06/01 08:27:04;;;;;;;;;;;;;;;26.17;30.75;101527.19;5026118;28;96804;-82
2021/06/01 08:29:30;;;;;;;;;;;;;;;25.63;31.59;101534.72;5030567;28;96684;-83
2021/06/01 08:31:56;;;;;;;;;;;;;;;25.91;31.03;101525.94;5020072;28;97924;-82
2021/06/01 08:34:22;;;;;;;;;;;;;;;25.66;31.35;101532.63;5026829;28;100008;-82
2021/06/01 08:36:49;;;;;;;;;;;;;;;25.36;32.27;101527.09;5029023;28;96496;-84
2021/06/01 08:39:24;;;;;;;;;;;;;;;25.78;32.21;101528.84;5028614;28;96902;-83
2021/06/01 08:41:50;;;;;;;;;;;;;;;25.58;31.89;101523.44;5023727;28;98880;-83
2021/06/01 08:44:17;;;;;;;;;;;;;;;25.65;31.95;101513.81;5032404;28;98104;-83
2021/06/01 08:46:48;;;;;;;;;;;;;;;26.06;31.36;101505.59;5030252;28;97105;-81
2021/06/01 08:49:15;;;;;;;;;;;;;;;26.28;30.88;101511.84;5024549;28;96930;-82
2021/06/01 08:51:41;;;;;;;;;;;;;;;25.97;30.81;101514.56;5029265;28;101133;-81
2021/06/01 08:54:07;;;;;;;;;;;;;;;25.71;30.92;101516.84;5024240;28;96854;-82
2021/06/01 08:56:33;;;;;;;;;;;;;;;25.87;30.33;101510.06;5029354;28;97153;-84
2021/06/01 08:59:00;;;;;;;;;;;;;;;25.92;30.48;101500.56;5012831;28;98186;-82
2021/06/01 09:01:27;;;;;;;;;;;;;;;25.94;30.74;101503.13;5016686;28;101334;-82
2021/06/01 09:03:55;;;;;;;;;;;;;;;26.22;30.44;101499.69;5001731;28;100647;-84
2021/06/01 09:06:24;;;;;;;;;;;;;;;26.24;29.85;101492.31;5017442;28;97269;-83
2021/06/01 09:09:01;;;;;;;;;;;;;;;26.67;29.71;101496.53;5025260;28;96874;-83
2021/06/01 09:11:35;;;;;;;;;;;;;;;26.96;29.43;101494.78;5023359;28;99544;-83
2021/06/01 09:22:28;;;;;;;;;;;;;;;26.90;28.93;101479.94;5019507;28;98797;-83
2021/06/01 09:24:59;;;;;;;;;;;;;;;26.97;28.70;101488.34;5019285;28;98396;-83
2021/06/01 09:27:28;;;;;;;;;;;;;;;26.87;28.42;101485.59;5015794;28;96860;-83
2021/06/01 09:29:54;;;;;;;;;;;;;;;27.00;28.04;101481.78;5017759;28;97011;-83
2021/06/01 09:32:23;;;;;;;;;;;;;;;26.57;27.21;101481.16;5013553;28;101346;-84
2021/06/01 09:34:49;;;;;;;;;;;;;;;26.95;25.86;101476.78;5014963;28;101135;-83
2021/06/01 09:37:17;;;;;;;;;;;;;;;26.83;26.50;101469.75;5021785;28;97218;-83
2021/06/01 09:39:44;;;;;;;;;;;;;;;27.40;24.80;101458.03;5029333;28;96976;-84
2021/06/01 09:42:26;;;;;;;;;;;;;;;28.01;24.43;101454.88;5021007;28;96943;-84
2021/06/01 09:45:01;;;;;;;;;;;;;;;27.72;25.02;101449.53;5027737;28;96888;-84
2021/06/01 09:47:41;;;;;;;;;;;;;;;26.62;25.34;101456.31;5029036;28;96791;-84
2021/06/01 09:50:14;;;;;;;;;;;;;;;27.14;25.23;101441.50;5029387;28;95965;-84
2021/06/01 09:52:47;;;;;;;;;;;;;;;27.95;24.21;101445.47;5031638;28;100594;-83
2021/06/01 09:55:26;;;;;;;;;;;;;;;27.85;23.69;101446.50;5035890;28;99308;-83
2021/06/01 09:57:52;;;;;;;;;;;;;;;27.68;23.66;101448.13;5026535;28;96859;-83
2021/06/01 10:00:19;;;;;;;;;;;;;;;27.95;20.57;101442.75;5033359;27;96440;-85
2021/06/01 10:03:04;;;;;;;;;;;;;;;26.98;20.69;101437.69;5007030;28;100922;-82
2021/06/01 10:05:32;;;;;;;;;;;;;;;26.82;21.00;101435.50;5017837;28;98609;-84
2021/06/01 10:07:59;;;;;;;;;;;;;;;26.68;21.26;101434.06;5015397;28;96862;-83
2021/06/01 10:10:26;;;;;;;;;;;;;;;26.80;21.78;101429.34;5014735;28;96845;-83
2021/06/01 10:12:53;;;;;;;;;;;;;;;27.33;22.21;101427.91;5030408;28;99160;-84
2021/06/01 10:15:21;;;;;;;;;;;;;;;27.45;22.50;101422.31;5034699;28;97198;-82
2021/06/01 10:17:48;;;;;;;;;;;;;;;27.84;22.44;101429.34;5025839;28;96785;-83
2021/06/01 10:20:15;;;;;;;;;;;;;;;27.43;23.17;101418.91;5036346;28;96873;-83
2021/06/01 10:22:42;;;;;;;;;;;;;;;28.09;22.40;101422.38;5021558;28;96888;-84
2021/06/01 10:25:12;;;;;;;;;;;;;;;27.83;21.18;101421.38;5020300;28;99245;-83
2021/06/01 10:27:38;;;;;;;;;;;;;;;26.44;22.36;101422.78;5020795;28;96809;-83
2021/06/01 10:30:05;;;;;;;;;;;;;;;26.77;22.53;101424.22;5030228;28;97219;-82
2021/06/01 10:32:32;;;;;;;;;;;;;;;27.55;21.63;101412.31;5029506;28;98434;-83
2021/06/01 10:34:58;;;;;;;;;;;;;;;27.56;21.84;101419.47;5024839;28;97246;-84
2021/06/01 10:48:54;;;;;;;;;;;;;;;27.85;21.42;101409.31;5014468;28;96787;-85
2021/06/01 10:51:29;;;;;;;;;;;;;;;27.90;21.96;101409.72;5016173;28;97918;-84
2021/06/01 10:53:55;;;;;;;;;;;;;;;27.81;22.52;101407.94;5016014;28;100230;-84
2021/06/01 10:56:23;;;;;;;;;;;;;;;27.09;22.90;101400.41;5010291;28;99201;-84
2021/06/01 10:59:14;;;;;;;;;;;;;;;26.98;23.09;101404.13;5010242;28;97612;-82
2021/06/01 11:01:58;;;;;;;;;;;;;;;27.79;22.43;101400.94;5029858;28;97086;-84
2021/06/01 11:04:26;;;;;;;;;;;;;;;27.60;23.40;101393.72;5023750;28;99364;-84
2021/06/01 11:09:51;;;;;;;;;;;;;;;29.24;22.11;101385.28;5004262;28;96859;-84
2021/06/01 11:12:35;;;;;;;;;;;;;;;28.77;22.98;101392.91;5027461;28;97180;-83
2021/06/01 11:15:23;;;;;;;;;;;;;;;27.56;22.45;101392.31;5017078;28;98339;-85
2021/06/01 11:17:49;;;;;;;;;;;;;;;27.15;21.42;101393.53;5010634;28;98656;-84
2021/06/01 11:20:18;;;;;;;;;;;;;;;27.30;21.29;101392.94;5019423;28;96737;-83
2021/06/01 11:22:48;;;;;;;;;;;;;;;28.43;20.22;101388.13;5016109;28;96978;-84
2021/06/01 11:33:40;;;;;;;;;;;;;;;27.85;22.79;101389.47;5025489;28;96833;-84
2021/06/01 11:36:07;;;;;;;;;;;;;;;28.28;22.69;101386.13;5012690;28;97622;-84
2021/06/01 11:38:37;;;;;;;;;;;;;;;27.47;22.99;101376.88;5008329;28;101593;-84
2021/06/01 11:43:54;;;;;;;;;;;;;;;28.10;22.66;101381.44;5013069;28;96821;-84
2021/06/01 11:46:26;;;;;;;;;;;;;;;28.74;21.84;101375.03;5018207;28;98510;-83
2021/06/01 11:51:36;;;;;;;;;;;;;;;28.22;22.33;101368.56;5024341;28;96742;-83
2021/06/01 11:54:04;;;;;;;;;;;;;;;28.01;21.66;101370.66;5024393;28;96758;-83
2021/06/01 11:56:37;;;;;;;;;;;;;;;27.82;21.71;101358.06;5021003;28;99536;-84
2021/06/01 12:02:07;;;;;;;;;;;;;;;29.18;20.76;101350.53;5021813;28;96876;-84
2021/06/01 12:04:38;;;;;;;;;;;;;;;28.40;20.34;101361.28;5023959;28;96903;-84
2021/06/01 12:12:44;;;;;;;;;;;;;;;26.93;20.83;101352.16;5021221;28;96864;-83
2021/06/01 12:18:02;;;;;;;;;;;;;;;26.62;20.84;101349.75;5023151;28;97297;-83
2021/06/01 12:20:28;;;;;;;;;;;;;;;26.39;22.43;101349.16;5024779;28;101344;-84
2021/06/01 12:22:59;;;;;;;;;;;;;;;27.72;21.34;101344.50;5018346;28;96682;-84
2021/06/01 12:25:25;;;;;;;;;;;;;;;28.36;20.41;101346.25;5017762;28;98333;-84
2021/06/01 12:28:06;;;;;;;;;;;;;;;28.65;20.04;101345.16;5020370;28;100599;-83
2021/06/01 12:30:57;;;;;;;;;;;;;;;28.48;19.58;101346.91;5022800;28;102102;-82
2021/06/01 12:33:26;;;;;;;;;;;;;;;27.94;20.17;101339.69;5022720;28;96636;-82
2021/06/01 12:37:06;;;;;;;;;;;;;;;28.19;19.86;101347.13;5017332;28;97376;-83
2021/06/01 12:41:58;;;;;;;;;;;;;;;28.76;18.96;101348.53;5022757;28;97019;-83
2021/06/01 12:44:33;;;;;;;;;;;;;;;29.10;19.01;101337.72;5024352;28;97677;-84
2021/06/01 12:47:10;;;;;;;;;;;;;;;29.27;18.22;101338.69;5026305;28;97022;-82
2021/06/01 13:09:28;;;;;;;;;;;;;;;28.76;16.61;101317.75;5023077;28;97802;-85
2021/06/01 13:14:49;;;;;;;;;;;;;;;29.21;16.09;101314.84;5015389;28;97402;-85
2021/06/01 13:20:12;;;;;;;;;;;;;;;30.12;15.70;101317.81;5033641;28;95994;-84
2021/06/01 13:22:52;;;;;;;;;;;;;;;30.80;14.84;101313.78;5014760;28;99017;-84
2021/06/01 13:31:19;;;;;;;;;;;;;;;31.59;14.53;101320.25;5026270;28;96504;-84
2021/06/01 13:36:50;;;;;;;;;;;;;;;31.67;13.77;101312.06;5033615;28;97783;-85
2021/06/01 13:39:33;;;;;;;;;;;;;;;32.45;13.22;101306.47;5037340;28;96480;-85
2021/06/01 13:47:20;;;;;;;;;;;;;;;31.95;12.30;101310.56;5025437;28;96829;-85
2021/06/01 13:49:48;;;;;;;;;;;;;;;32.38;11.82;101305.50;5019317;28;96877;-85
2021/06/01 13:52:34;;;;;;;;;;;;;;;31.59;11.90;101309.34;5021621;28;96895;-84
2021/06/01 13:55:07;;;;;;;;;;;;;;;31.93;12.03;101306.28;5014574;28;99573;-84
2021/06/01 13:57:38;;;;;;;;;;;;;;;31.38;12.19;101306.34;5021428;28;98363;-85
2021/06/01 14:00:30;;;;;;;;;;;;;;;30.00;12.58;101303.63;5027594;28;96867;-86
2021/06/01 14:15:16;;;;;;;;;;;;;;;30.62;12.45;101312.25;5043198;27;96681;-86
2021/06/01 14:20:09;;;;;;;;;;;;;;;30.19;13.32;101314.25;5034858;28;96693;-86
2021/06/01 14:31:12;;;;;;;;;;;;;;;29.58;13.45;101309.09;5023724;28;97734;-85
2021/06/01 14:39:28;;;;;;;;;;;;;;;30.65;13.94;101298.28;5020696;28;99486;-85
2021/06/01 15:07:34;;;;;;;;;;;;;;;34.15;11.77;101270.81;5026498;27;97903;-84
2021/06/01 15:10:21;;;;;;;;;;;;;;;32.73;12.85;101276.69;5030970;28;96825;-86
2021/06/01 15:29:47;;;;;;;;;;;;;;;31.03;14.33;101262.06;5031893;28;97166;-87
2021/06/01 15:32:17;;;;;;;;;;;;;;;29.07;15.34;101269.19;5031195;28;97596;-86